Hauptseite
METAR-TAF:

METAR-TAF

Flughäfen :

Stuttgart, Deutschland

Flughafen Stuttgart

Breite: 48-41N, Länge: 009-13E, Höhe: 396 m

Beobachtung

Neuester Wetterbericht von vor 23 Minuten, um 15:20 UTC
Wind 5 kt aus unterschiedlichen Richtungen
Temperatur 26°C
Luftfeuchtigkeit 30%
Luftdruck 1018 hPa
Sichtweite 10 km oder mehr
keine Wolken unter 1500 m und keine Kumulonimbus oder Gewitterwolken

METAR: EDDS 211520Z VRB05KT CAVOK 26/07 Q1018 NOSIG

Zeit: 17:43 (15:43 UTC)

Prognose

Neuester Wetterbericht von vor 4 Stunden und 43 Minuten, um 11:00 UTC
Gültige Prognose vom 21 um 12 UTC bis 22 um 12 UTC
Wind 4 kt aus Nord
Sichtweite 10 km oder mehr
keine Wolken unter 1500 m und keine Kumulonimbus oder Gewitterwolken
Übergehend zu
vom 22 um 07 UTC bis 22 um 10 UTC
Wind 6 kt aus Südwest

TAF: EDDS 211100Z 2112/2212 35004KT CAVOK BECMG 2207/2210 23006KT

Wetterbeobachtungen und Prognosen von mehr als 4000 Flughäfen (METAR und TAF Bericht).

Die verfügbaren Stationen werden durch gelbe und rote Markierungen auf der Karte dargestellt.

Führen Sie die Maus auf sie, um den Namen der Station zu sehen.

Darauf klicken, um die Beobachtung von Wetterbeobachtungen und Prognosen zu sehen.

Um die Karte zu ändern : klicken Sie auf den grünen Tasten mit einem schwarzen Kreuz Zum Vergrößern, auf den grünen Button mit einem Gedankenstrich zu verkleinern, oder auf die grünen Pfeile für benachbarte Karten.


METAR-TAF: